sensor_id;sensor_type;location;lat;lon;timestamp;pressure;altitude;pressure_sealevel;temperature;humidity
8318;BME280;4196;48.926;8.964;2023-03-26T00:01:13;98573.66;;;6.31;100.00
8318;BME280;4196;48.926;8.964;2023-03-26T00:04:02;98571.94;;;6.33;100.00
8318;BME280;4196;48.926;8.964;2023-03-26T00:06:50;98573.69;;;6.36;100.00
8318;BME280;4196;48.926;8.964;2023-03-26T00:09:37;98568.47;;;6.29;100.00
8318;BME280;4196;48.926;8.964;2023-03-26T00:12:24;98572.00;;;6.42;100.00
8318;BME280;4196;48.926;8.964;2023-03-26T00:15:11;98570.28;;;6.41;100.00
8318;BME280;4196;48.926;8.964;2023-03-26T00:17:57;98560.88;;;6.46;100.00
8318;BME280;4196;48.926;8.964;2023-03-26T00:20:46;98573.72;;;6.43;100.00
8318;BME280;4196;48.926;8.964;2023-03-26T00:23:34;98578.88;;;6.46;100.00
8318;BME280;4196;48.926;8.964;2023-03-26T00:26:21;98584.88;;;6.41;100.00
8318;BME280;4196;48.926;8.964;2023-03-26T00:29:07;98584.88;;;6.41;100.00
8318;BME280;4196;48.926;8.964;2023-03-26T00:31:55;98591.69;;;6.39;100.00
8318;BME280;4196;48.926;8.964;2023-03-26T00:34:42;98583.03;;;6.23;100.00
8318;BME280;4196;48.926;8.964;2023-03-26T00:37:31;98580.47;;;6.23;100.00
8318;BME280;4196;48.926;8.964;2023-03-26T00:40:19;98577.13;;;6.39;100.00
8318;BME280;4196;48.926;8.964;2023-03-26T00:43:05;98572.88;;;6.46;100.00
8318;BME280;4196;48.926;8.964;2023-03-26T00:46:03;98563.47;;;6.46;100.00
8318;BME280;4196;48.926;8.964;2023-03-26T00:48:51;98563.41;;;6.39;100.00
8318;BME280;4196;48.926;8.964;2023-03-26T00:51:39;98558.22;;;6.31;100.00
8318;BME280;4196;48.926;8.964;2023-03-26T00:54:25;98556.53;;;6.30;100.00
8318;BME280;4196;48.926;8.964;2023-03-26T00:57:12;98552.19;;;6.24;100.00
8318;BME280;4196;48.926;8.964;2023-03-26T01:00:14;98539.25;;;6.14;100.00
8318;BME280;4196;48.926;8.964;2023-03-26T01:03:04;98532.44;;;6.22;100.00
8318;BME280;4196;48.926;8.964;2023-03-26T01:05:57;98537.56;;;6.16;100.00
8318;BME280;4196;48.926;8.964;2023-03-26T01:08:49;98512.59;;;5.98;100.00
8318;BME280;4196;48.926;8.964;2023-03-26T01:11:36;98524.72;;;6.16;100.00
8318;BME280;4196;48.926;8.964;2023-03-26T01:14:24;98526.53;;;6.35;100.00
8318;BME280;4196;48.926;8.964;2023-03-26T01:17:12;98524.78;;;6.26;100.00
8318;BME280;4196;48.926;8.964;2023-03-26T01:20:25;98508.50;;;6.29;100.00
8318;BME280;4196;48.926;8.964;2023-03-26T01:23:22;98503.38;;;6.32;100.00
8318;BME280;4196;48.926;8.964;2023-03-26T01:26:26;98499.06;;;6.26;100.00
8318;BME280;4196;48.926;8.964;2023-03-26T01:29:41;98499.81;;;6.10;100.00
8318;BME280;4196;48.926;8.964;2023-03-26T01:36:18;98491.06;;;5.85;100.00
8318;BME280;4196;48.926;8.964;2023-03-26T01:39:36;98487.53;;;5.74;100.00
8318;BME280;4196;48.926;8.964;2023-03-26T01:42:47;98483.25;;;5.68;100.00
8318;BME280;4196;48.926;8.964;2023-03-26T01:45:38;98472.94;;;5.64;100.00
8318;BME280;4196;48.926;8.964;2023-03-26T01:48:47;98474.59;;;5.57;100.00
8318;BME280;4196;48.926;8.964;2023-03-26T01:51:34;98460.81;;;5.47;100.00
8318;BME280;4196;48.926;8.964;2023-03-26T01:54:25;98459.22;;;5.60;100.00
8318;BME280;4196;48.926;8.964;2023-03-26T01:57:20;98455.72;;;5.52;100.00
8318;BME280;4196;48.926;8.964;2023-03-26T02:00:24;98459.03;;;5.39;100.00
8318;BME280;4196;48.926;8.964;2023-03-26T02:03:38;98442.78;;;5.38;100.00
8318;BME280;4196;48.926;8.964;2023-03-26T02:07:08;98424.00;;;5.48;100.00
8318;BME280;4196;48.926;8.964;2023-03-26T02:10:02;98429.94;;;5.38;100.00
8318;BME280;4196;48.926;8.964;2023-03-26T02:12:52;98406.72;;;5.23;100.00
8318;BME280;4196;48.926;8.964;2023-03-26T02:15:39;98419.75;;;5.49;100.00
8318;BME280;4196;48.926;8.964;2023-03-26T02:18:27;98321.03;;;5.05;100.00
8318;BME280;4196;48.926;8.964;2023-03-26T02:21:25;98398.34;;;5.48;100.00
8318;BME280;4196;48.926;8.964;2023-03-26T02:24:11;98410.38;;;5.55;100.00
8318;BME280;4196;48.926;8.964;2023-03-26T02:26:58;98401.75;;;5.47;100.00
8318;BME280;4196;48.926;8.964;2023-03-26T02:29:47;98391.59;;;5.63;100.00
8318;BME280;4196;48.926;8.964;2023-03-26T02:32:39;98401.78;;;5.50;100.00
8318;BME280;4196;48.926;8.964;2023-03-26T02:35:25;98395.84;;;5.59;100.00
8318;BME280;4196;48.926;8.964;2023-03-26T02:38:17;98398.41;;;5.56;100.00
8318;BME280;4196;48.926;8.964;2023-03-26T02:41:04;98378.59;;;5.38;100.00
8318;BME280;4196;48.926;8.964;2023-03-26T02:44:06;98393.19;;;5.42;100.00
8318;BME280;4196;48.926;8.964;2023-03-26T02:47:13;98388.19;;;5.64;100.00
8318;BME280;4196;48.926;8.964;2023-03-26T02:50:03;98379.50;;;5.46;100.00
8318;BME280;4196;48.926;8.964;2023-03-26T02:53:06;98382.03;;;5.45;100.00
8318;BME280;4196;48.926;8.964;2023-03-26T02:55:58;98380.31;;;5.38;100.00
8318;BME280;4196;48.926;8.964;2023-03-26T02:58:48;98366.59;;;5.34;100.00
8318;BME280;4196;48.926;8.964;2023-03-26T03:01:35;98379.53;;;5.51;100.00
8318;BME280;4196;48.926;8.964;2023-03-26T03:04:22;98368.44;;;5.55;100.00
8318;BME280;4196;48.926;8.964;2023-03-26T03:07:09;98365.00;;;5.54;100.00
8318;BME280;4196;48.926;8.964;2023-03-26T03:09:59;98358.13;;;5.52;100.00
8318;BME280;4196;48.926;8.964;2023-03-26T03:13:16;98352.22;;;5.65;100.00
8318;BME280;4196;48.926;8.964;2023-03-26T03:16:03;98335.94;;;5.58;100.00
8318;BME280;4196;48.926;8.964;2023-03-26T03:18:51;98336.75;;;5.54;100.00
8318;BME280;4196;48.926;8.964;2023-03-26T03:21:52;98341.84;;;5.48;100.00
8318;BME280;4196;48.926;8.964;2023-03-26T03:24:38;98322.28;;;5.69;100.00
8318;BME280;4196;48.926;8.964;2023-03-26T03:27:27;98319.75;;;5.72;100.00
8318;BME280;4196;48.926;8.964;2023-03-26T03:30:24;98326.63;;;5.74;100.00
8318;BME280;4196;48.926;8.964;2023-03-26T03:33:43;98326.66;;;5.88;100.00
8318;BME280;4196;48.926;8.964;2023-03-26T03:36:32;98308.72;;;5.96;100.00
8318;BME280;4196;48.926;8.964;2023-03-26T03:39:31;98305.34;;;6.01;100.00
8318;BME280;4196;48.926;8.964;2023-03-26T03:42:18;98306.22;;;6.08;100.00
8318;BME280;4196;48.926;8.964;2023-03-26T03:45:05;98288.19;;;6.03;100.00
8318;BME280;4196;48.926;8.964;2023-03-26T03:48:11;98285.63;;;5.97;100.00
8318;BME280;4196;48.926;8.964;2023-03-26T03:51:00;98289.88;;;6.00;100.00
8318;BME280;4196;48.926;8.964;2023-03-26T03:53:57;98278.78;;;6.01;100.00
8318;BME280;4196;48.926;8.964;2023-03-26T03:57:04;98287.31;;;5.94;100.00
8318;BME280;4196;48.926;8.964;2023-03-26T03:59:57;98290.78;;;6.10;100.00
8318;BME280;4196;48.926;8.964;2023-03-26T04:02:49;98287.31;;;6.00;100.00
8318;BME280;4196;48.926;8.964;2023-03-26T04:05:36;98279.59;;;5.95;100.00
8318;BME280;4196;48.926;8.964;2023-03-26T04:08:23;98277.97;;;6.16;100.00
8318;BME280;4196;48.926;8.964;2023-03-26T04:11:14;98271.91;;;5.98;100.00
8318;BME280;4196;48.926;8.964;2023-03-26T04:14:30;98263.38;;;6.09;100.00
8318;BME280;4196;48.926;8.964;2023-03-26T04:17:19;98249.59;;;5.91;100.00
8318;BME280;4196;48.926;8.964;2023-03-26T04:20:09;98248.69;;;5.81;100.00
8318;BME280;4196;48.926;8.964;2023-03-26T04:23:01;98249.56;;;5.79;100.00
8318;BME280;4196;48.926;8.964;2023-03-26T04:25:50;98240.97;;;5.81;100.00
8318;BME280;4196;48.926;8.964;2023-03-26T04:28:48;98211.00;;;5.73;100.00
8318;BME280;4196;48.926;8.964;2023-03-26T04:31:40;98226.44;;;5.79;100.00
8318;BME280;4196;48.926;8.964;2023-03-26T04:34:29;98217.00;;;5.78;100.00
8318;BME280;4196;48.926;8.964;2023-03-26T04:37:32;98225.69;;;6.04;100.00
8318;BME280;4196;48.926;8.964;2023-03-26T04:40:47;98199.91;;;5.91;100.00
8318;BME280;4196;48.926;8.964;2023-03-26T04:43:54;98187.09;;;5.92;100.00
8318;BME280;4196;48.926;8.964;2023-03-26T04:46:54;98182.75;;;5.85;100.00
8318;BME280;4196;48.926;8.964;2023-03-26T04:50:06;98178.47;;;5.81;100.00
8318;BME280;4196;48.926;8.964;2023-03-26T04:52:55;98177.63;;;5.85;100.00
8318;BME280;4196;48.926;8.964;2023-03-26T04:55:54;98182.84;;;6.08;100.00
8318;BME280;4196;48.926;8.964;2023-03-26T04:59:02;98196.56;;;6.27;100.00
8318;BME280;4196;48.926;8.964;2023-03-26T05:01:53;98198.25;;;6.14;100.00
8318;BME280;4196;48.926;8.964;2023-03-26T05:04:42;98194.00;;;6.38;100.00
8318;BME280;4196;48.926;8.964;2023-03-26T05:07:31;98174.28;;;6.21;100.00
8318;BME280;4196;48.926;8.964;2023-03-26T05:10:20;98187.16;;;6.27;100.00
8318;BME280;4196;48.926;8.964;2023-03-26T05:13:10;98176.88;;;6.27;100.00
8318;BME280;4196;48.926;8.964;2023-03-26T05:16:02;98152.00;;;6.25;100.00
8318;BME280;4196;48.926;8.964;2023-03-26T05:18:56;98165.72;;;6.35;100.00
8318;BME280;4196;48.926;8.964;2023-03-26T05:21:48;98167.44;;;6.52;100.00
8318;BME280;4196;48.926;8.964;2023-03-26T05:24:35;98147.75;;;6.41;100.00
8318;BME280;4196;48.926;8.964;2023-03-26T05:27:22;98132.28;;;6.45;100.00
8318;BME280;4196;48.926;8.964;2023-03-26T05:30:13;98128.84;;;6.49;100.00
8318;BME280;4196;48.926;8.964;2023-03-26T05:33:03;98128.00;;;6.50;100.00
8318;BME280;4196;48.926;8.964;2023-03-26T05:36:00;98103.13;;;6.60;100.00
8318;BME280;4196;48.926;8.964;2023-03-26T05:38:50;98109.94;;;6.72;100.00
8318;BME280;4196;48.926;8.964;2023-03-26T05:42:06;98097.97;;;6.68;100.00
8318;BME280;4196;48.926;8.964;2023-03-26T05:45:31;98077.38;;;6.68;100.00
8318;BME280;4196;48.926;8.964;2023-03-26T05:48:25;98092.75;;;6.85;100.00
8318;BME280;4196;48.926;8.964;2023-03-26T05:51:12;98090.13;;;7.05;100.00
8318;BME280;4196;48.926;8.964;2023-03-26T05:54:07;98076.44;;;6.96;100.00
8318;BME280;4196;48.926;8.964;2023-03-26T05:57:12;98084.06;;;7.10;100.00
8318;BME280;4196;48.926;8.964;2023-03-26T06:00:17;98048.91;;;7.11;100.00
8318;BME280;4196;48.926;8.964;2023-03-26T06:03:04;98050.56;;;7.18;100.00
8318;BME280;4196;48.926;8.964;2023-03-26T06:06:21;98039.41;;;7.19;100.00
8318;BME280;4196;48.926;8.964;2023-03-26T06:09:13;98038.56;;;7.20;100.00
8318;BME280;4196;48.926;8.964;2023-03-26T06:12:01;98032.53;;;7.18;100.00
8318;BME280;4196;48.926;8.964;2023-03-26T06:14:49;98035.88;;;7.38;100.00
8318;BME280;4196;48.926;8.964;2023-03-26T06:17:41;98021.25;;;7.39;100.00
8318;BME280;4196;48.926;8.964;2023-03-26T06:20:51;98012.53;;;7.60;100.00
8318;BME280;4196;48.926;8.964;2023-03-26T06:24:07;98000.47;;;7.62;100.00
8318;BME280;4196;48.926;8.964;2023-03-26T06:27:12;98006.41;;;7.73;100.00
8318;BME280;4196;48.926;8.964;2023-03-26T06:30:20;98000.41;;;7.71;100.00
8318;BME280;4196;48.926;8.964;2023-03-26T06:33:36;98005.56;;;7.74;100.00
8318;BME280;4196;48.926;8.964;2023-03-26T06:36:23;98008.13;;;7.77;100.00
8318;BME280;4196;48.926;8.964;2023-03-26T06:39:10;98012.44;;;7.69;100.00
8318;BME280;4196;48.926;8.964;2023-03-26T06:42:05;97995.19;;;7.80;100.00
8318;BME280;4196;48.926;8.964;2023-03-26T06:45:11;97984.09;;;7.72;100.00
8318;BME280;4196;48.926;8.964;2023-03-26T06:48:29;97989.97;;;7.86;100.00
8318;BME280;4196;48.926;8.964;2023-03-26T06:51:42;97993.41;;;7.88;100.00
8318;BME280;4196;48.926;8.964;2023-03-26T06:54:58;98002.00;;;7.87;100.00
8318;BME280;4196;48.926;8.964;2023-03-26T06:58:23;98007.22;;;7.78;100.00
8318;BME280;4196;48.926;8.964;2023-03-26T07:01:28;97967.09;;;7.49;100.00
8318;BME280;4196;48.926;8.964;2023-03-26T07:04:35;97970.47;;;7.55;100.00
8318;BME280;4196;48.926;8.964;2023-03-26T07:07:41;97976.50;;;7.57;100.00
8318;BME280;4196;48.926;8.964;2023-03-26T07:10:50;97961.94;;;7.53;100.00
8318;BME280;4196;48.926;8.964;2023-03-26T07:14:03;97956.81;;;7.46;100.00
8318;BME280;4196;48.926;8.964;2023-03-26T07:17:21;97962.72;;;7.61;100.00
8318;BME280;4196;48.926;8.964;2023-03-26T07:20:12;97967.84;;;7.64;100.00
8318;BME280;4196;48.926;8.964;2023-03-26T07:23:00;97957.34;;;7.85;100.00
8318;BME280;4196;48.926;8.964;2023-03-26T07:25:53;97906.28;;;7.35;100.00
8318;BME280;4196;48.926;8.964;2023-03-26T07:28:59;97954.81;;;7.79;100.00
8318;BME280;4196;48.926;8.964;2023-03-26T07:32:14;97953.09;;;7.81;100.00
8318;BME280;4196;48.926;8.964;2023-03-26T07:42:21;97942.97;;;7.61;100.00
8318;BME280;4196;48.926;8.964;2023-03-26T07:45:40;97923.34;;;7.46;100.00
8318;BME280;4196;48.926;8.964;2023-03-26T07:48:46;97935.22;;;7.66;100.00
8318;BME280;4196;48.926;8.964;2023-03-26T07:51:51;97907.97;;;7.37;100.00
8318;BME280;4196;48.926;8.964;2023-03-26T07:54:57;97908.03;;;7.30;100.00
8318;BME280;4196;48.926;8.964;2023-03-26T08:05:26;97905.31;;;7.46;100.00
8318;BME280;4196;48.926;8.964;2023-03-26T08:15:36;97887.50;;;7.22;100.00
8318;BME280;4196;48.926;8.964;2023-03-26T08:21:42;97883.94;;;7.35;100.00
8318;BME280;4196;48.926;8.964;2023-03-26T08:24:46;97876.31;;;7.29;100.00
8318;BME280;4196;48.926;8.964;2023-03-26T08:27:57;97883.22;;;7.18;100.00
8318;BME280;4196;48.926;8.964;2023-03-26T08:30:49;97877.22;;;7.19;100.00
8318;BME280;4196;48.926;8.964;2023-03-26T08:33:36;97870.34;;;7.18;100.00
8318;BME280;4196;48.926;8.964;2023-03-26T08:36:24;97863.50;;;7.20;100.00
8318;BME280;4196;48.926;8.964;2023-03-26T08:39:11;97867.00;;;7.14;100.00
8318;BME280;4196;48.926;8.964;2023-03-26T08:48:40;97861.47;;;7.53;100.00
8318;BME280;4196;48.926;8.964;2023-03-26T08:54:56;97886.53;;;8.17;100.00
8318;BME280;4196;48.926;8.964;2023-03-26T09:06:56;97871.53;;;8.51;100.00
8318;BME280;4196;48.926;8.964;2023-03-26T09:20:32;97847.31;;;9.66;100.00
8318;BME280;4196;48.926;8.964;2023-03-26T09:35:23;97836.00;;;11.63;100.00
8318;BME280;4196;48.926;8.964;2023-03-26T09:50:51;97820.34;;;10.99;100.00
8318;BME280;4196;48.926;8.964;2023-03-26T09:53:52;97834.44;;;11.23;100.00
8318;BME280;4196;48.926;8.964;2023-03-26T09:57:36;97826.22;;;11.42;100.00
8318;BME280;4196;48.926;8.964;2023-03-26T10:06:28;97814.66;;;12.17;100.00
8318;BME280;4196;48.926;8.964;2023-03-26T10:12:58;97806.25;;;12.93;98.02
8318;BME280;4196;48.926;8.964;2023-03-26T10:16:21;97799.88;;;13.30;87.12
8318;BME280;4196;48.926;8.964;2023-03-26T10:26:19;97800.41;;;12.87;79.98
8318;BME280;4196;48.926;8.964;2023-03-26T10:32:40;97803.41;;;13.01;72.94
8318;BME280;4196;48.926;8.964;2023-03-26T10:42:21;97735.81;;;12.76;71.28
8318;BME280;4196;48.926;8.964;2023-03-26T10:45:24;97795.78;;;12.96;70.34
8318;BME280;4196;48.926;8.964;2023-03-26T10:57:44;97726.78;;;12.05;75.89
8318;BME280;4196;48.926;8.964;2023-03-26T11:00:38;97789.19;;;12.58;73.60
8318;BME280;4196;48.926;8.964;2023-03-26T11:09:24;97772.16;;;13.54;68.95
8318;BME280;4196;48.926;8.964;2023-03-26T11:15:23;97737.38;;;13.33;68.14
8318;BME280;4196;48.926;8.964;2023-03-26T11:21:53;97783.13;;;13.39;70.90
8318;BME280;4196;48.926;8.964;2023-03-26T11:24:45;97796.53;;;13.00;69.83
8318;BME280;4196;48.926;8.964;2023-03-26T11:27:46;97795.91;;;12.92;71.69
8318;BME280;4196;48.926;8.964;2023-03-26T11:30:51;97792.63;;;12.58;72.04
8318;BME280;4196;48.926;8.964;2023-03-26T11:33:43;97800.31;;;12.04;75.45
8318;BME280;4196;48.926;8.964;2023-03-26T11:36:36;97804.66;;;11.71;79.73
8318;BME280;4196;48.926;8.964;2023-03-26T11:39:28;97818.66;;;11.65;85.48
8318;BME280;4196;48.926;8.964;2023-03-26T11:42:16;97792.94;;;11.57;88.20
8318;BME280;4196;48.926;8.964;2023-03-26T11:45:14;97813.88;;;11.82;90.40
8318;BME280;4196;48.926;8.964;2023-03-26T11:48:12;97805.38;;;12.08;85.19
8318;BME280;4196;48.926;8.964;2023-03-26T11:51:07;97805.53;;;12.33;79.93
8318;BME280;4196;48.926;8.964;2023-03-26T11:53:56;97803.06;;;12.57;76.40
8318;BME280;4196;48.926;8.964;2023-03-26T11:56:52;97820.53;;;12.80;75.47
8318;BME280;4196;48.926;8.964;2023-03-26T11:59:56;97811.50;;;12.92;74.26
8318;BME280;4196;48.926;8.964;2023-03-26T12:02:45;97816.16;;;13.09;74.50
8318;BME280;4196;48.926;8.964;2023-03-26T12:05:46;97760.63;;;12.85;78.41
8318;BME280;4196;48.926;8.964;2023-03-26T12:08:37;97797.81;;;13.13;77.33
8318;BME280;4196;48.926;8.964;2023-03-26T12:11:29;97803.66;;;13.20;75.64
8318;BME280;4196;48.926;8.964;2023-03-26T12:14:23;97801.50;;;13.06;72.76
8318;BME280;4196;48.926;8.964;2023-03-26T12:17:13;97800.22;;;12.93;68.64
8318;BME280;4196;48.926;8.964;2023-03-26T12:20:01;97791.69;;;12.89;68.06
8318;BME280;4196;48.926;8.964;2023-03-26T12:23:34;97789.00;;;13.44;68.93
8318;BME280;4196;48.926;8.964;2023-03-26T12:26:35;97781.16;;;13.94;63.20
8318;BME280;4196;48.926;8.964;2023-03-26T12:29:22;97771.59;;;14.18;61.67
8318;BME280;4196;48.926;8.964;2023-03-26T12:32:13;97770.38;;;14.50;60.00
8318;BME280;4196;48.926;8.964;2023-03-26T12:35:04;97766.91;;;14.71;58.72
8318;BME280;4196;48.926;8.964;2023-03-26T12:37:54;97757.59;;;14.66;56.70
8318;BME280;4196;48.926;8.964;2023-03-26T12:40:41;97762.00;;;14.86;52.40
8318;BME280;4196;48.926;8.964;2023-03-26T12:43:38;97749.84;;;14.64;50.57
8318;BME280;4196;48.926;8.964;2023-03-26T12:46:45;97756.03;;;15.04;51.22
8318;BME280;4196;48.926;8.964;2023-03-26T12:49:52;97732.69;;;15.01;49.41
8318;BME280;4196;48.926;8.964;2023-03-26T12:53:01;97725.31;;;14.90;50.63
8318;BME280;4196;48.926;8.964;2023-03-26T13:15:31;97780.81;;;11.91;72.99
8318;BME280;4196;48.926;8.964;2023-03-26T13:18:42;97756.03;;;11.48;79.16
8318;BME280;4196;48.926;8.964;2023-03-26T13:24:45;97731.97;;;12.33;74.03
8318;BME280;4196;48.926;8.964;2023-03-26T13:28:03;97738.00;;;12.88;72.34
8318;BME280;4196;48.926;8.964;2023-03-26T13:34:28;97713.84;;;13.61;69.71
8318;BME280;4196;48.926;8.964;2023-03-26T13:49:14;97716.00;;;13.25;65.11
8318;BME280;4196;48.926;8.964;2023-03-26T13:52:11;97722.59;;;13.09;65.91
8318;BME280;4196;48.926;8.964;2023-03-26T13:58:15;97696.09;;;13.24;63.23
8318;BME280;4196;48.926;8.964;2023-03-26T14:01:27;97692.66;;;13.23;62.47
8318;BME280;4196;48.926;8.964;2023-03-26T14:04:29;97690.06;;;13.23;61.29
8318;BME280;4196;48.926;8.964;2023-03-26T14:07:22;97693.66;;;13.19;59.42
8318;BME280;4196;48.926;8.964;2023-03-26T14:10:23;97693.44;;;13.25;60.85
8318;BME280;4196;48.926;8.964;2023-03-26T14:16:39;97684.94;;;13.20;60.02
8318;BME280;4196;48.926;8.964;2023-03-26T14:19:38;97690.13;;;12.95;59.01
8318;BME280;4196;48.926;8.964;2023-03-26T14:41:28;97732.78;;;11.46;72.20
8318;BME280;4196;48.926;8.964;2023-03-26T14:47:45;97803.75;;;9.91;88.62
8318;BME280;4196;48.926;8.964;2023-03-26T14:50:40;97813.13;;;9.03;100.00
8318;BME280;4196;48.926;8.964;2023-03-26T14:53:35;97826.09;;;8.41;100.00
8318;BME280;4196;48.926;8.964;2023-03-26T15:09:25;97811.91;;;7.31;100.00
8318;BME280;4196;48.926;8.964;2023-03-26T15:41:17;97791.88;;;7.57;100.00
8318;BME280;4196;48.926;8.964;2023-03-26T15:50:28;97778.97;;;7.60;100.00
8318;BME280;4196;48.926;8.964;2023-03-26T15:57:04;97698.78;;;7.14;100.00
8318;BME280;4196;48.926;8.964;2023-03-26T16:00:34;97785.63;;;7.78;100.00
8318;BME280;4196;48.926;8.964;2023-03-26T16:03:37;97767.53;;;7.84;100.00
8318;BME280;4196;48.926;8.964;2023-03-26T16:09:56;97769.72;;;8.12;100.00
8318;BME280;4196;48.926;8.964;2023-03-26T16:22:14;97785.44;;;8.57;100.00
8318;BME280;4196;48.926;8.964;2023-03-26T16:28:27;97785.84;;;8.28;100.00
8318;BME280;4196;48.926;8.964;2023-03-26T16:34:26;97741.13;;;7.67;100.00
8318;BME280;4196;48.926;8.964;2023-03-26T16:40:26;97816.50;;;7.84;100.00
8318;BME280;4196;48.926;8.964;2023-03-26T16:46:50;97830.31;;;7.77;100.00
8318;BME280;4196;48.926;8.964;2023-03-26T17:08:38;97852.84;;;7.57;100.00
8318;BME280;4196;48.926;8.964;2023-03-26T17:14:59;97837.38;;;7.60;100.00
8318;BME280;4196;48.926;8.964;2023-03-26T17:21:48;97846.81;;;7.58;100.00
8318;BME280;4196;48.926;8.964;2023-03-26T17:46:26;97848.56;;;7.56;100.00
8318;BME280;4196;48.926;8.964;2023-03-26T17:49:28;97849.47;;;7.52;100.00
8318;BME280;4196;48.926;8.964;2023-03-26T17:52:33;97847.78;;;7.49;100.00
8318;BME280;4196;48.926;8.964;2023-03-26T17:55:26;97841.84;;;7.41;100.00
8318;BME280;4196;48.926;8.964;2023-03-26T17:58:26;97841.88;;;7.38;100.00
8318;BME280;4196;48.926;8.964;2023-03-26T18:01:26;97826.56;;;7.25;100.00
8318;BME280;4196;48.926;8.964;2023-03-26T18:04:24;97824.03;;;7.18;100.00
8318;BME280;4196;48.926;8.964;2023-03-26T18:16:41;97830.06;;;7.18;100.00
8318;BME280;4196;48.926;8.964;2023-03-26T18:19:44;97833.50;;;7.13;100.00
8318;BME280;4196;48.926;8.964;2023-03-26T18:22:32;97842.03;;;7.18;100.00
8318;BME280;4196;48.926;8.964;2023-03-26T18:25:25;97843.78;;;7.16;100.00
8318;BME280;4196;48.926;8.964;2023-03-26T18:28:12;97820.69;;;7.07;100.00
8318;BME280;4196;48.926;8.964;2023-03-26T18:31:08;97845.53;;;7.12;100.00
8318;BME280;4196;48.926;8.964;2023-03-26T18:33:56;97834.41;;;7.09;100.00
8318;BME280;4196;48.926;8.964;2023-03-26T18:40:07;97848.13;;;7.11;100.00
8318;BME280;4196;48.926;8.964;2023-03-26T18:42:59;97837.84;;;7.06;100.00
8318;BME280;4196;48.926;8.964;2023-03-26T18:45:49;97843.06;;;7.01;100.00
8318;BME280;4196;48.926;8.964;2023-03-26T18:48:36;97845.66;;;7.00;100.00
8318;BME280;4196;48.926;8.964;2023-03-26T18:51:25;97810.56;;;6.87;100.00
8318;BME280;4196;48.926;8.964;2023-03-26T18:54:16;97827.59;;;7.01;100.00
8318;BME280;4196;48.926;8.964;2023-03-26T18:57:19;97831.13;;;6.91;100.00
8318;BME280;4196;48.926;8.964;2023-03-26T19:00:20;97825.16;;;6.86;100.00
8318;BME280;4196;48.926;8.964;2023-03-26T19:03:09;97823.47;;;6.81;100.00
8318;BME280;4196;48.926;8.964;2023-03-26T19:05:59;97829.53;;;6.73;100.00
8318;BME280;4196;48.926;8.964;2023-03-26T19:08:48;97827.88;;;6.65;100.00
8318;BME280;4196;48.926;8.964;2023-03-26T19:11:39;97822.78;;;6.59;100.00
8318;BME280;4196;48.926;8.964;2023-03-26T19:14:27;97832.25;;;6.53;100.00
8318;BME280;4196;48.926;8.964;2023-03-26T19:17:13;97834.91;;;6.41;100.00
8318;BME280;4196;48.926;8.964;2023-03-26T19:20:00;97817.81;;;6.34;100.00
8318;BME280;4196;48.926;8.964;2023-03-26T19:22:47;97806.78;;;6.12;100.00
8318;BME280;4196;48.926;8.964;2023-03-26T19:25:45;97831.59;;;6.16;100.00
8318;BME280;4196;48.926;8.964;2023-03-26T19:28:53;97823.94;;;6.07;100.00
8318;BME280;4196;48.926;8.964;2023-03-26T19:40:40;97811.28;;;5.44;100.00
8318;BME280;4196;48.926;8.964;2023-03-26T19:43:27;97836.09;;;5.56;100.00
8318;BME280;4196;48.926;8.964;2023-03-26T19:46:14;97831.81;;;5.56;100.00
8318;BME280;4196;48.926;8.964;2023-03-26T19:49:00;97811.28;;;5.41;100.00
8318;BME280;4196;48.926;8.964;2023-03-26T19:51:49;97829.22;;;5.55;100.00
8318;BME280;4196;48.926;8.964;2023-03-26T19:54:58;97829.19;;;5.66;100.00
8318;BME280;4196;48.926;8.964;2023-03-26T19:57:46;97824.91;;;5.68;100.00
8318;BME280;4196;48.926;8.964;2023-03-26T20:00:32;97823.19;;;5.70;100.00
8318;BME280;4196;48.926;8.964;2023-03-26T20:03:35;97807.81;;;5.57;100.00
8318;BME280;4196;48.926;8.964;2023-03-26T20:06:24;97795.84;;;5.56;100.00
8318;BME280;4196;48.926;8.964;2023-03-26T20:09:28;97802.66;;;5.67;100.00
8318;BME280;4196;48.926;8.964;2023-03-26T20:12:14;97822.28;;;5.83;100.00
8318;BME280;4196;48.926;8.964;2023-03-26T20:15:00;97798.41;;;5.64;100.00
8318;BME280;4196;48.926;8.964;2023-03-26T20:17:47;97773.63;;;5.45;100.00
8318;BME280;4196;48.926;8.964;2023-03-26T20:20:40;97806.09;;;5.66;100.00
8318;BME280;4196;48.926;8.964;2023-03-26T20:23:27;97823.19;;;5.70;100.00
8318;BME280;4196;48.926;8.964;2023-03-26T20:26:15;97821.47;;;5.76;100.00
8318;BME280;4196;48.926;8.964;2023-03-26T20:29:01;97800.94;;;5.75;100.00
8318;BME280;4196;48.926;8.964;2023-03-26T20:31:49;97788.06;;;5.78;100.00
8318;BME280;4196;48.926;8.964;2023-03-26T20:34:36;97786.31;;;5.97;100.00
8318;BME280;4196;48.926;8.964;2023-03-26T20:37:23;97771.75;;;5.91;100.00
8318;BME280;4196;48.926;8.964;2023-03-26T20:40:10;97815.31;;;6.19;100.00
8318;BME280;4196;48.926;8.964;2023-03-26T20:42:57;97804.19;;;6.20;100.00
8318;BME280;4196;48.926;8.964;2023-03-26T20:45:44;97803.25;;;6.32;100.00
8318;BME280;4196;48.926;8.964;2023-03-26T20:48:30;97799.81;;;6.29;100.00
8318;BME280;4196;48.926;8.964;2023-03-26T20:51:18;97799.78;;;6.37;100.00
8318;BME280;4196;48.926;8.964;2023-03-26T20:54:05;97788.69;;;6.29;100.00
8318;BME280;4196;48.926;8.964;2023-03-26T20:56:52;97809.16;;;6.49;100.00
8318;BME280;4196;48.926;8.964;2023-03-26T20:59:39;97775.81;;;6.35;100.00
8318;BME280;4196;48.926;8.964;2023-03-26T21:02:25;97763.88;;;6.22;100.00
8318;BME280;4196;48.926;8.964;2023-03-26T21:05:12;97814.22;;;6.57;100.00
8318;BME280;4196;48.926;8.964;2023-03-26T21:08:04;97763.03;;;6.23;100.00
8318;BME280;4196;48.926;8.964;2023-03-26T21:10:50;97795.50;;;6.36;100.00
8318;BME280;4196;48.926;8.964;2023-03-26T21:13:59;97809.97;;;6.51;100.00
8318;BME280;4196;48.926;8.964;2023-03-26T21:16:47;97784.38;;;6.29;100.00
8318;BME280;4196;48.926;8.964;2023-03-26T21:19:34;97816.84;;;6.52;100.00
8318;BME280;4196;48.926;8.964;2023-03-26T21:28:45;97813.50;;;6.35;100.00
8318;BME280;4196;48.926;8.964;2023-03-26T21:31:32;97787.88;;;6.21;100.00
8318;BME280;4196;48.926;8.964;2023-03-26T21:34:22;97789.63;;;6.14;100.00
8318;BME280;4196;48.926;8.964;2023-03-26T21:37:08;97783.66;;;6.11;100.00
8318;BME280;4196;48.926;8.964;2023-03-26T21:39:55;97816.16;;;6.24;100.00
8318;BME280;4196;48.926;8.964;2023-03-26T21:42:47;97821.31;;;6.15;100.00
8318;BME280;4196;48.926;8.964;2023-03-26T21:45:34;97840.94;;;6.29;100.00
8318;BME280;4196;48.926;8.964;2023-03-26T21:48:22;97814.53;;;6.03;100.00